Mudanjiang, China
Current Conditions -  °F | °C
As of 12:30 PM on Friday 19 Dec 2014 (Local Time) from UHWW Reporting Station
Overcast Overcast  
Wind Chill: 12°   Ceiling: 2000
Heat Index: 12°   Visibility: 6mi
Dew Point:   Wind: 2mph
Humidity: 62%   Direction: NA
Pressure: 30.24"   Gusts: NA
Location:  44.58°N, 129.6°E
Report Text: UHWW 190430Z VRB01MPS 9999 BKN020 OVC100 M11/M17 Q1024 NOSIGRMK QFE767/1023 25CLRD60
Loading
Personal Weather Stations






























Interactive Weather Map New forecast layout! Learn more

10-Day Weather Forecast

Advertisements
Track Severe Weather on mobile